sensor_id;sensor_type;location;lat;lon;timestamp;P1;durP1;ratioP1;P2;durP2;ratioP2
12990;SDS011;6560;57.692;11.958;2023-06-14T00:01:53;4.37;;;3.20;;
12990;SDS011;6560;57.692;11.958;2023-06-14T00:04:20;4.43;;;3.17;;
12990;SDS011;6560;57.692;11.958;2023-06-14T00:06:46;5.23;;;4.13;;
12990;SDS011;6560;57.692;11.958;2023-06-14T00:09:13;5.13;;;3.70;;
12990;SDS011;6560;57.692;11.958;2023-06-14T00:11:40;4.10;;;3.63;;
12990;SDS011;6560;57.692;11.958;2023-06-14T00:14:06;4.97;;;3.53;;
12990;SDS011;6560;57.692;11.958;2023-06-14T00:16:32;3.93;;;3.53;;
12990;SDS011;6560;57.692;11.958;2023-06-14T00:18:58;3.77;;;3.17;;
12990;SDS011;6560;57.692;11.958;2023-06-14T00:21:24;5.67;;;3.17;;
12990;SDS011;6560;57.692;11.958;2023-06-14T00:23:50;5.00;;;3.30;;
12990;SDS011;6560;57.692;11.958;2023-06-14T00:26:15;5.67;;;3.73;;
12990;SDS011;6560;57.692;11.958;2023-06-14T00:28:41;12.30;;;4.43;;
12990;SDS011;6560;57.692;11.958;2023-06-14T00:31:06;4.23;;;3.20;;
12990;SDS011;6560;57.692;11.958;2023-06-14T00:33:32;9.87;;;3.77;;
12990;SDS011;6560;57.692;11.958;2023-06-14T00:35:57;5.83;;;3.60;;
12990;SDS011;6560;57.692;11.958;2023-06-14T00:38:23;4.40;;;4.00;;
12990;SDS011;6560;57.692;11.958;2023-06-14T00:40:48;6.70;;;3.63;;
12990;SDS011;6560;57.692;11.958;2023-06-14T00:43:14;4.43;;;3.20;;
12990;SDS011;6560;57.692;11.958;2023-06-14T00:45:40;6.27;;;3.23;;
12990;SDS011;6560;57.692;11.958;2023-06-14T00:48:05;4.53;;;3.57;;
12990;SDS011;6560;57.692;11.958;2023-06-14T00:50:32;5.57;;;3.33;;
12990;SDS011;6560;57.692;11.958;2023-06-14T00:52:58;6.00;;;3.90;;
12990;SDS011;6560;57.692;11.958;2023-06-14T00:55:26;4.67;;;3.37;;
12990;SDS011;6560;57.692;11.958;2023-06-14T00:57:51;5.63;;;3.43;;
12990;SDS011;6560;57.692;11.958;2023-06-14T01:00:21;5.80;;;3.40;;
12990;SDS011;6560;57.692;11.958;2023-06-14T01:02:47;6.13;;;3.87;;
12990;SDS011;6560;57.692;11.958;2023-06-14T01:05:15;6.70;;;4.27;;
12990;SDS011;6560;57.692;11.958;2023-06-14T01:10:40;5.00;;;4.00;;
12990;SDS011;6560;57.692;11.958;2023-06-14T01:13:32;4.00;;;3.30;;
12990;SDS011;6560;57.692;11.958;2023-06-14T01:16:00;6.07;;;4.37;;
12990;SDS011;6560;57.692;11.958;2023-06-14T01:18:30;5.53;;;4.07;;
12990;SDS011;6560;57.692;11.958;2023-06-14T01:20:57;4.53;;;3.63;;
12990;SDS011;6560;57.692;11.958;2023-06-14T01:23:23;5.73;;;3.80;;
12990;SDS011;6560;57.692;11.958;2023-06-14T01:25:50;6.83;;;6.00;;
12990;SDS011;6560;57.692;11.958;2023-06-14T01:28:19;5.83;;;3.53;;
12990;SDS011;6560;57.692;11.958;2023-06-14T01:30:47;4.50;;;3.70;;
12990;SDS011;6560;57.692;11.958;2023-06-14T01:33:23;6.20;;;4.43;;
12990;SDS011;6560;57.692;11.958;2023-06-14T01:35:51;5.83;;;3.57;;
12990;SDS011;6560;57.692;11.958;2023-06-14T01:38:19;6.60;;;3.87;;
12990;SDS011;6560;57.692;11.958;2023-06-14T01:40:48;5.33;;;3.70;;
12990;SDS011;6560;57.692;11.958;2023-06-14T01:43:16;4.27;;;3.70;;
12990;SDS011;6560;57.692;11.958;2023-06-14T01:45:44;9.70;;;5.17;;
12990;SDS011;6560;57.692;11.958;2023-06-14T01:48:12;9.13;;;4.83;;
12990;SDS011;6560;57.692;11.958;2023-06-14T01:50:37;4.00;;;3.60;;
12990;SDS011;6560;57.692;11.958;2023-06-14T01:53:05;5.63;;;3.93;;
12990;SDS011;6560;57.692;11.958;2023-06-14T01:55:33;7.97;;;4.43;;
12990;SDS011;6560;57.692;11.958;2023-06-14T01:58:02;7.77;;;3.83;;
12990;SDS011;6560;57.692;11.958;2023-06-14T02:00:30;6.50;;;4.43;;
12990;SDS011;6560;57.692;11.958;2023-06-14T02:02:55;7.50;;;5.20;;
12990;SDS011;6560;57.692;11.958;2023-06-14T02:05:21;10.17;;;4.63;;
12990;SDS011;6560;57.692;11.958;2023-06-14T02:07:47;6.40;;;4.70;;
12990;SDS011;6560;57.692;11.958;2023-06-14T02:10:13;7.00;;;4.33;;
12990;SDS011;6560;57.692;11.958;2023-06-14T02:12:39;9.67;;;5.00;;
12990;SDS011;6560;57.692;11.958;2023-06-14T02:15:05;5.67;;;4.63;;
12990;SDS011;6560;57.692;11.958;2023-06-14T02:17:32;5.27;;;4.50;;
12990;SDS011;6560;57.692;11.958;2023-06-14T02:19:57;4.60;;;4.20;;
12990;SDS011;6560;57.692;11.958;2023-06-14T02:22:23;6.83;;;5.40;;
12990;SDS011;6560;57.692;11.958;2023-06-14T02:24:48;8.40;;;4.97;;
12990;SDS011;6560;57.692;11.958;2023-06-14T02:27:15;5.87;;;4.50;;
12990;SDS011;6560;57.692;11.958;2023-06-14T02:29:40;8.53;;;5.33;;
12990;SDS011;6560;57.692;11.958;2023-06-14T02:32:06;9.03;;;5.40;;
12990;SDS011;6560;57.692;11.958;2023-06-14T02:34:33;7.13;;;5.03;;
12990;SDS011;6560;57.692;11.958;2023-06-14T02:36:59;6.37;;;5.17;;
12990;SDS011;6560;57.692;11.958;2023-06-14T02:39:27;5.53;;;5.00;;
12990;SDS011;6560;57.692;11.958;2023-06-14T02:41:53;9.73;;;6.07;;
12990;SDS011;6560;57.692;11.958;2023-06-14T02:44:23;10.10;;;5.27;;
12990;SDS011;6560;57.692;11.958;2023-06-14T02:46:50;10.30;;;5.37;;
12990;SDS011;6560;57.692;11.958;2023-06-14T02:49:16;6.07;;;5.20;;
12990;SDS011;6560;57.692;11.958;2023-06-14T02:51:41;7.17;;;5.70;;
12990;SDS011;6560;57.692;11.958;2023-06-14T02:54:09;7.93;;;5.70;;
12990;SDS011;6560;57.692;11.958;2023-06-14T02:56:36;10.30;;;5.73;;
12990;SDS011;6560;57.692;11.958;2023-06-14T02:59:01;7.20;;;5.97;;
12990;SDS011;6560;57.692;11.958;2023-06-14T03:01:27;7.43;;;4.90;;
12990;SDS011;6560;57.692;11.958;2023-06-14T03:03:58;6.37;;;5.30;;
12990;SDS011;6560;57.692;11.958;2023-06-14T03:06:24;7.57;;;5.57;;
12990;SDS011;6560;57.692;11.958;2023-06-14T03:08:50;5.23;;;4.47;;
12990;SDS011;6560;57.692;11.958;2023-06-14T03:11:16;5.83;;;5.03;;
12990;SDS011;6560;57.692;11.958;2023-06-14T03:13:45;5.70;;;4.70;;
12990;SDS011;6560;57.692;11.958;2023-06-14T03:16:11;5.90;;;4.80;;
12990;SDS011;6560;57.692;11.958;2023-06-14T03:18:38;6.00;;;4.43;;
12990;SDS011;6560;57.692;11.958;2023-06-14T03:21:03;5.32;;;3.75;;
12990;SDS011;6560;57.692;11.958;2023-06-14T03:23:30;6.50;;;4.07;;
12990;SDS011;6560;57.692;11.958;2023-06-14T03:25:56;5.50;;;3.85;;
12990;SDS011;6560;57.692;11.958;2023-06-14T03:28:23;7.25;;;3.65;;
12990;SDS011;6560;57.692;11.958;2023-06-14T03:30:48;5.35;;;3.88;;
12990;SDS011;6560;57.692;11.958;2023-06-14T03:33:14;5.78;;;3.75;;
12990;SDS011;6560;57.692;11.958;2023-06-14T03:35:40;3.88;;;3.55;;
12990;SDS011;6560;57.692;11.958;2023-06-14T03:38:06;6.57;;;3.80;;
12990;SDS011;6560;57.692;11.958;2023-06-14T03:40:32;3.60;;;3.30;;
12990;SDS011;6560;57.692;11.958;2023-06-14T03:42:57;3.90;;;3.50;;
12990;SDS011;6560;57.692;11.958;2023-06-14T03:45:23;3.70;;;3.10;;
12990;SDS011;6560;57.692;11.958;2023-06-14T03:47:48;4.82;;;3.17;;
12990;SDS011;6560;57.692;11.958;2023-06-14T03:50:15;4.95;;;3.90;;
12990;SDS011;6560;57.692;11.958;2023-06-14T03:52:40;4.72;;;3.33;;
12990;SDS011;6560;57.692;11.958;2023-06-14T03:55:08;5.97;;;3.67;;
12990;SDS011;6560;57.692;11.958;2023-06-14T03:57:33;7.30;;;3.30;;
12990;SDS011;6560;57.692;11.958;2023-06-14T03:59:59;5.20;;;4.07;;
12990;SDS011;6560;57.692;11.958;2023-06-14T04:02:25;5.47;;;3.40;;
12990;SDS011;6560;57.692;11.958;2023-06-14T04:04:53;3.83;;;3.45;;
12990;SDS011;6560;57.692;11.958;2023-06-14T04:07:19;8.40;;;3.70;;
12990;SDS011;6560;57.692;11.958;2023-06-14T04:09:45;5.78;;;3.33;;
12990;SDS011;6560;57.692;11.958;2023-06-14T04:12:11;5.28;;;3.13;;
12990;SDS011;6560;57.692;11.958;2023-06-14T04:14:38;4.50;;;3.50;;
12990;SDS011;6560;57.692;11.958;2023-06-14T04:17:04;4.65;;;3.35;;
12990;SDS011;6560;57.692;11.958;2023-06-14T04:19:30;8.80;;;3.47;;
12990;SDS011;6560;57.692;11.958;2023-06-14T04:21:55;8.25;;;3.92;;
12990;SDS011;6560;57.692;11.958;2023-06-14T04:24:21;5.13;;;3.25;;
12990;SDS011;6560;57.692;11.958;2023-06-14T04:26:48;4.63;;;2.85;;
12990;SDS011;6560;57.692;11.958;2023-06-14T04:29:14;4.20;;;3.60;;
12990;SDS011;6560;57.692;11.958;2023-06-14T04:31:41;3.88;;;3.42;;
12990;SDS011;6560;57.692;11.958;2023-06-14T04:34:11;6.45;;;3.83;;
12990;SDS011;6560;57.692;11.958;2023-06-14T04:36:41;7.40;;;2.95;;
12990;SDS011;6560;57.692;11.958;2023-06-14T04:39:17;4.35;;;3.00;;
12990;SDS011;6560;57.692;11.958;2023-06-14T04:41:43;5.53;;;3.22;;
12990;SDS011;6560;57.692;11.958;2023-06-14T04:44:09;3.50;;;3.00;;
12990;SDS011;6560;57.692;11.958;2023-06-14T04:46:35;3.50;;;3.03;;
12990;SDS011;6560;57.692;11.958;2023-06-14T04:49:10;7.00;;;3.08;;
12990;SDS011;6560;57.692;11.958;2023-06-14T04:51:41;5.63;;;2.72;;
12990;SDS011;6560;57.692;11.958;2023-06-14T04:54:08;2.88;;;2.55;;
12990;SDS011;6560;57.692;11.958;2023-06-14T04:56:38;3.20;;;2.88;;
12990;SDS011;6560;57.692;11.958;2023-06-14T04:59:04;4.20;;;3.13;;
12990;SDS011;6560;57.692;11.958;2023-06-14T05:01:30;3.47;;;2.85;;
12990;SDS011;6560;57.692;11.958;2023-06-14T05:03:59;5.55;;;3.20;;
12990;SDS011;6560;57.692;11.958;2023-06-14T05:06:25;6.60;;;3.33;;
12990;SDS011;6560;57.692;11.958;2023-06-14T05:08:53;5.82;;;2.92;;
12990;SDS011;6560;57.692;11.958;2023-06-14T05:11:39;4.07;;;2.90;;
12990;SDS011;6560;57.692;11.958;2023-06-14T05:14:05;4.50;;;2.92;;
12990;SDS011;6560;57.692;11.958;2023-06-14T05:16:31;4.15;;;2.78;;
12990;SDS011;6560;57.692;11.958;2023-06-14T05:18:56;4.30;;;3.35;;
12990;SDS011;6560;57.692;11.958;2023-06-14T05:21:23;4.70;;;3.17;;
12990;SDS011;6560;57.692;11.958;2023-06-14T05:23:48;4.57;;;3.05;;
12990;SDS011;6560;57.692;11.958;2023-06-14T05:26:15;5.35;;;3.20;;
12990;SDS011;6560;57.692;11.958;2023-06-14T05:28:41;5.18;;;3.17;;
12990;SDS011;6560;57.692;11.958;2023-06-14T05:31:27;7.68;;;3.13;;
12990;SDS011;6560;57.692;11.958;2023-06-14T05:33:53;6.90;;;3.55;;
12990;SDS011;6560;57.692;11.958;2023-06-14T05:36:19;3.65;;;3.15;;
12990;SDS011;6560;57.692;11.958;2023-06-14T05:38:46;4.95;;;2.95;;
12990;SDS011;6560;57.692;11.958;2023-06-14T05:41:12;2.85;;;2.65;;
12990;SDS011;6560;57.692;11.958;2023-06-14T05:43:39;3.10;;;2.10;;
12990;SDS011;6560;57.692;11.958;2023-06-14T05:46:04;4.45;;;2.92;;
12990;SDS011;6560;57.692;11.958;2023-06-14T05:48:30;5.10;;;2.85;;
12990;SDS011;6560;57.692;11.958;2023-06-14T05:50:56;5.10;;;2.67;;
12990;SDS011;6560;57.692;11.958;2023-06-14T05:53:22;5.28;;;2.85;;
12990;SDS011;6560;57.692;11.958;2023-06-14T05:55:47;3.97;;;2.65;;
12990;SDS011;6560;57.692;11.958;2023-06-14T05:58:16;4.28;;;2.67;;
12990;SDS011;6560;57.692;11.958;2023-06-14T06:00:42;3.42;;;2.33;;
12990;SDS011;6560;57.692;11.958;2023-06-14T06:03:07;7.47;;;2.55;;
12990;SDS011;6560;57.692;11.958;2023-06-14T06:05:36;6.97;;;2.72;;
12990;SDS011;6560;57.692;11.958;2023-06-14T06:08:01;8.10;;;3.03;;
12990;SDS011;6560;57.692;11.958;2023-06-14T06:10:27;4.10;;;2.70;;
12990;SDS011;6560;57.692;11.958;2023-06-14T06:12:52;4.60;;;3.10;;
12990;SDS011;6560;57.692;11.958;2023-06-14T06:15:19;4.57;;;2.25;;
12990;SDS011;6560;57.692;11.958;2023-06-14T06:17:45;3.33;;;2.70;;
12990;SDS011;6560;57.692;11.958;2023-06-14T06:20:11;6.90;;;2.90;;
12990;SDS011;6560;57.692;11.958;2023-06-14T06:22:37;5.13;;;2.60;;
12990;SDS011;6560;57.692;11.958;2023-06-14T06:25:03;3.17;;;2.85;;
12990;SDS011;6560;57.692;11.958;2023-06-14T06:27:29;4.43;;;2.92;;
12990;SDS011;6560;57.692;11.958;2023-06-14T06:29:55;6.57;;;2.88;;
12990;SDS011;6560;57.692;11.958;2023-06-14T06:32:21;7.55;;;2.63;;
12990;SDS011;6560;57.692;11.958;2023-06-14T06:34:46;7.15;;;3.28;;
12990;SDS011;6560;57.692;11.958;2023-06-14T06:37:13;5.70;;;3.08;;
12990;SDS011;6560;57.692;11.958;2023-06-14T06:39:38;9.38;;;3.75;;
12990;SDS011;6560;57.692;11.958;2023-06-14T06:42:04;8.80;;;3.28;;
12990;SDS011;6560;57.692;11.958;2023-06-14T06:45:18;4.10;;;3.13;;
12990;SDS011;6560;57.692;11.958;2023-06-14T06:47:43;6.72;;;3.45;;
12990;SDS011;6560;57.692;11.958;2023-06-14T06:50:09;6.35;;;3.13;;
12990;SDS011;6560;57.692;11.958;2023-06-14T06:53:13;5.20;;;3.28;;
12990;SDS011;6560;57.692;11.958;2023-06-14T06:55:39;7.68;;;3.70;;
12990;SDS011;6560;57.692;11.958;2023-06-14T06:58:31;9.20;;;3.72;;
12990;SDS011;6560;57.692;11.958;2023-06-14T07:00:58;7.93;;;3.92;;
12990;SDS011;6560;57.692;11.958;2023-06-14T07:17:06;6.03;;;3.40;;
12990;SDS011;6560;57.692;11.958;2023-06-14T07:19:31;8.50;;;3.25;;
12990;SDS011;6560;57.692;11.958;2023-06-14T07:21:58;7.72;;;3.33;;
12990;SDS011;6560;57.692;11.958;2023-06-14T07:24:23;6.20;;;3.55;;
12990;SDS011;6560;57.692;11.958;2023-06-14T07:26:49;7.30;;;3.00;;
12990;SDS011;6560;57.692;11.958;2023-06-14T07:29:14;5.65;;;3.67;;
12990;SDS011;6560;57.692;11.958;2023-06-14T07:31:41;6.20;;;3.67;;
12990;SDS011;6560;57.692;11.958;2023-06-14T07:34:07;6.20;;;3.22;;
12990;SDS011;6560;57.692;11.958;2023-06-14T07:36:32;4.32;;;2.80;;
12990;SDS011;6560;57.692;11.958;2023-06-14T07:38:58;7.53;;;3.28;;
12990;SDS011;6560;57.692;11.958;2023-06-14T07:41:24;7.97;;;3.35;;
12990;SDS011;6560;57.692;11.958;2023-06-14T07:43:50;5.43;;;2.78;;
12990;SDS011;6560;57.692;11.958;2023-06-14T07:46:16;6.10;;;2.70;;
12990;SDS011;6560;57.692;11.958;2023-06-14T07:48:41;5.30;;;2.85;;
12990;SDS011;6560;57.692;11.958;2023-06-14T07:51:07;7.57;;;2.85;;
12990;SDS011;6560;57.692;11.958;2023-06-14T07:53:33;5.53;;;2.85;;
12990;SDS011;6560;57.692;11.958;2023-06-14T07:55:59;10.00;;;3.22;;
12990;SDS011;6560;57.692;11.958;2023-06-14T07:58:25;7.30;;;3.50;;
12990;SDS011;6560;57.692;11.958;2023-06-14T08:00:50;5.95;;;3.38;;
12990;SDS011;6560;57.692;11.958;2023-06-14T08:03:16;10.18;;;3.35;;
12990;SDS011;6560;57.692;11.958;2023-06-14T08:05:43;4.43;;;2.95;;
12990;SDS011;6560;57.692;11.958;2023-06-14T08:08:08;7.78;;;3.28;;
12990;SDS011;6560;57.692;11.958;2023-06-14T08:10:34;5.97;;;2.83;;
12990;SDS011;6560;57.692;11.958;2023-06-14T08:13:00;8.80;;;3.33;;
12990;SDS011;6560;57.692;11.958;2023-06-14T08:15:26;5.60;;;3.10;;
12990;SDS011;6560;57.692;11.958;2023-06-14T08:17:52;4.85;;;2.92;;
12990;SDS011;6560;57.692;11.958;2023-06-14T08:20:18;6.78;;;3.13;;
12990;SDS011;6560;57.692;11.958;2023-06-14T08:22:43;8.07;;;3.00;;
12990;SDS011;6560;57.692;11.958;2023-06-14T08:25:11;5.10;;;3.90;;
12990;SDS011;6560;57.692;11.958;2023-06-14T08:27:37;6.45;;;3.10;;
12990;SDS011;6560;57.692;11.958;2023-06-14T08:30:02;5.97;;;3.13;;
12990;SDS011;6560;57.692;11.958;2023-06-14T08:32:29;4.90;;;2.97;;
12990;SDS011;6560;57.692;11.958;2023-06-14T08:34:54;7.35;;;3.22;;
12990;SDS011;6560;57.692;11.958;2023-06-14T08:37:20;8.02;;;2.80;;
12990;SDS011;6560;57.692;11.958;2023-06-14T08:39:46;8.82;;;3.08;;
12990;SDS011;6560;57.692;11.958;2023-06-14T08:42:11;4.30;;;3.05;;
12990;SDS011;6560;57.692;11.958;2023-06-14T08:44:39;5.95;;;2.85;;
12990;SDS011;6560;57.692;11.958;2023-06-14T08:47:05;3.10;;;2.67;;
12990;SDS011;6560;57.692;11.958;2023-06-14T08:49:33;8.20;;;3.40;;
12990;SDS011;6560;57.692;11.958;2023-06-14T08:52:00;5.60;;;3.20;;
12990;SDS011;6560;57.692;11.958;2023-06-14T08:54:30;9.90;;;3.72;;
12990;SDS011;6560;57.692;11.958;2023-06-14T08:56:59;7.97;;;3.45;;
12990;SDS011;6560;57.692;11.958;2023-06-14T08:59:28;9.15;;;3.40;;
12990;SDS011;6560;57.692;11.958;2023-06-14T09:01:56;8.70;;;3.40;;
12990;SDS011;6560;57.692;11.958;2023-06-14T09:04:22;6.85;;;2.97;;
12990;SDS011;6560;57.692;11.958;2023-06-14T09:06:49;7.93;;;2.78;;
12990;SDS011;6560;57.692;11.958;2023-06-14T09:09:20;3.45;;;2.90;;
12990;SDS011;6560;57.692;11.958;2023-06-14T09:11:46;7.43;;;3.13;;
12990;SDS011;6560;57.692;11.958;2023-06-14T09:14:17;4.53;;;3.03;;
12990;SDS011;6560;57.692;11.958;2023-06-14T09:16:44;8.63;;;3.75;;
12990;SDS011;6560;57.692;11.958;2023-06-14T09:19:20;8.50;;;3.47;;
12990;SDS011;6560;57.692;11.958;2023-06-14T09:21:47;10.20;;;3.60;;
12990;SDS011;6560;57.692;11.958;2023-06-14T09:24:13;8.75;;;3.15;;
12990;SDS011;6560;57.692;11.958;2023-06-14T09:26:39;11.98;;;3.65;;
12990;SDS011;6560;57.692;11.958;2023-06-14T09:29:05;13.90;;;3.67;;
12990;SDS011;6560;57.692;11.958;2023-06-14T09:31:31;6.43;;;3.22;;
12990;SDS011;6560;57.692;11.958;2023-06-14T09:33:57;5.55;;;3.30;;
12990;SDS011;6560;57.692;11.958;2023-06-14T09:36:26;5.80;;;3.13;;
12990;SDS011;6560;57.692;11.958;2023-06-14T09:38:55;7.43;;;3.55;;
12990;SDS011;6560;57.692;11.958;2023-06-14T09:41:34;8.77;;;3.28;;
12990;SDS011;6560;57.692;11.958;2023-06-14T09:44:05;5.68;;;3.08;;
12990;SDS011;6560;57.692;11.958;2023-06-14T09:46:32;5.82;;;3.35;;
12990;SDS011;6560;57.692;11.958;2023-06-14T09:49:00;4.72;;;3.10;;
12990;SDS011;6560;57.692;11.958;2023-06-14T09:51:27;5.22;;;3.75;;
12990;SDS011;6560;57.692;11.958;2023-06-14T09:53:59;4.43;;;3.42;;
12990;SDS011;6560;57.692;11.958;2023-06-14T09:56:30;5.47;;;2.95;;
12990;SDS011;6560;57.692;11.958;2023-06-14T09:59:06;3.40;;;2.83;;
12990;SDS011;6560;57.692;11.958;2023-06-14T10:01:35;3.22;;;2.80;;
12990;SDS011;6560;57.692;11.958;2023-06-14T10:04:06;5.93;;;3.25;;
12990;SDS011;6560;57.692;11.958;2023-06-14T10:06:35;5.57;;;3.17;;
12990;SDS011;6560;57.692;11.958;2023-06-14T10:09:09;8.15;;;3.10;;
12990;SDS011;6560;57.692;11.958;2023-06-14T10:11:36;3.75;;;3.45;;
12990;SDS011;6560;57.692;11.958;2023-06-14T10:14:07;3.67;;;3.38;;
12990;SDS011;6560;57.692;11.958;2023-06-14T10:19:37;8.55;;;3.20;;
12990;SDS011;6560;57.692;11.958;2023-06-14T10:22:08;3.80;;;3.42;;
12990;SDS011;6560;57.692;11.958;2023-06-14T10:24:44;4.97;;;3.13;;
12990;SDS011;6560;57.692;11.958;2023-06-14T10:27:13;3.88;;;3.15;;
12990;SDS011;6560;57.692;11.958;2023-06-14T10:32:23;3.30;;;3.00;;
12990;SDS011;6560;57.692;11.958;2023-06-14T10:34:59;4.53;;;3.22;;
12990;SDS011;6560;57.692;11.958;2023-06-14T10:37:29;3.10;;;2.67;;
12990;SDS011;6560;57.692;11.958;2023-06-14T10:39:54;3.15;;;2.85;;
12990;SDS011;6560;57.692;11.958;2023-06-14T10:42:20;3.28;;;3.00;;
12990;SDS011;6560;57.692;11.958;2023-06-14T10:47:21;3.20;;;2.90;;
12990;SDS011;6560;57.692;11.958;2023-06-14T10:49:53;3.08;;;2.78;;
12990;SDS011;6560;57.692;11.958;2023-06-14T10:52:38;4.20;;;3.72;;
12990;SDS011;6560;57.692;11.958;2023-06-14T10:55:15;3.70;;;3.05;;
12990;SDS011;6560;57.692;11.958;2023-06-14T10:57:48;5.38;;;3.45;;
12990;SDS011;6560;57.692;11.958;2023-06-14T11:00:17;6.03;;;3.25;;
12990;SDS011;6560;57.692;11.958;2023-06-14T11:05:55;5.78;;;3.30;;
12990;SDS011;6560;57.692;11.958;2023-06-14T11:11:07;5.70;;;2.95;;
12990;SDS011;6560;57.692;11.958;2023-06-14T11:13:39;2.85;;;2.55;;
12990;SDS011;6560;57.692;11.958;2023-06-14T11:16:10;8.55;;;3.20;;
12990;SDS011;6560;57.692;11.958;2023-06-14T11:18:37;9.57;;;3.05;;
12990;SDS011;6560;57.692;11.958;2023-06-14T11:21:02;5.20;;;2.88;;
12990;SDS011;6560;57.692;11.958;2023-06-14T11:23:28;6.28;;;3.35;;
12990;SDS011;6560;57.692;11.958;2023-06-14T11:25:54;7.28;;;3.22;;
12990;SDS011;6560;57.692;11.958;2023-06-14T11:28:21;4.95;;;2.97;;
12990;SDS011;6560;57.692;11.958;2023-06-14T11:30:47;7.07;;;3.75;;
12990;SDS011;6560;57.692;11.958;2023-06-14T11:33:19;7.30;;;3.38;;
12990;SDS011;6560;57.692;11.958;2023-06-14T11:36:05;7.07;;;2.90;;
12990;SDS011;6560;57.692;11.958;2023-06-14T11:38:36;3.03;;;2.72;;
12990;SDS011;6560;57.692;11.958;2023-06-14T11:41:04;4.57;;;2.65;;
12990;SDS011;6560;57.692;11.958;2023-06-14T11:43:32;4.68;;;3.13;;
12990;SDS011;6560;57.692;11.958;2023-06-14T11:45:59;3.55;;;3.25;;
12990;SDS011;6560;57.692;11.958;2023-06-14T11:48:41;3.03;;;2.63;;
12990;SDS011;6560;57.692;11.958;2023-06-14T11:51:07;7.18;;;3.33;;
12990;SDS011;6560;57.692;11.958;2023-06-14T11:53:33;4.63;;;2.90;;
12990;SDS011;6560;57.692;11.958;2023-06-14T11:56:00;3.30;;;2.70;;
12990;SDS011;6560;57.692;11.958;2023-06-14T11:58:26;3.25;;;2.58;;
12990;SDS011;6560;57.692;11.958;2023-06-14T12:00:54;12.05;;;3.08;;
12990;SDS011;6560;57.692;11.958;2023-06-14T12:03:23;4.40;;;2.95;;
12990;SDS011;6560;57.692;11.958;2023-06-14T12:06:02;3.28;;;2.80;;
12990;SDS011;6560;57.692;11.958;2023-06-14T12:08:36;3.90;;;2.80;;
12990;SDS011;6560;57.692;11.958;2023-06-14T12:11:06;5.60;;;2.88;;
12990;SDS011;6560;57.692;11.958;2023-06-14T12:13:37;2.95;;;2.65;;
12990;SDS011;6560;57.692;11.958;2023-06-14T12:16:04;4.32;;;2.90;;
12990;SDS011;6560;57.692;11.958;2023-06-14T12:18:33;5.75;;;2.60;;
12990;SDS011;6560;57.692;11.958;2023-06-14T12:21:01;3.40;;;2.80;;
12990;SDS011;6560;57.692;11.958;2023-06-14T12:23:44;5.10;;;2.92;;
12990;SDS011;6560;57.692;11.958;2023-06-14T12:26:14;3.33;;;2.78;;
12990;SDS011;6560;57.692;11.958;2023-06-14T12:28:45;3.85;;;3.15;;
12990;SDS011;6560;57.692;11.958;2023-06-14T12:31:12;10.02;;;2.72;;
12990;SDS011;6560;57.692;11.958;2023-06-14T12:33:40;4.03;;;2.40;;
12990;SDS011;6560;57.692;11.958;2023-06-14T12:36:09;4.88;;;2.97;;
12990;SDS011;6560;57.692;11.958;2023-06-14T12:38:35;4.03;;;2.70;;
12990;SDS011;6560;57.692;11.958;2023-06-14T12:41:02;5.47;;;2.75;;
12990;SDS011;6560;57.692;11.958;2023-06-14T12:43:28;3.75;;;3.17;;
12990;SDS011;6560;57.692;11.958;2023-06-14T12:45:54;3.35;;;3.05;;
12990;SDS011;6560;57.692;11.958;2023-06-14T12:48:19;3.70;;;3.35;;
12990;SDS011;6560;57.692;11.958;2023-06-14T12:50:45;3.97;;;3.35;;
12990;SDS011;6560;57.692;11.958;2023-06-14T12:53:11;5.25;;;2.80;;
12990;SDS011;6560;57.692;11.958;2023-06-14T12:55:38;3.92;;;2.55;;
12990;SDS011;6560;57.692;11.958;2023-06-14T12:58:04;3.83;;;3.03;;
12990;SDS011;6560;57.692;11.958;2023-06-14T13:00:30;6.68;;;3.13;;
12990;SDS011;6560;57.692;11.958;2023-06-14T13:02:57;7.05;;;2.75;;
12990;SDS011;6560;57.692;11.958;2023-06-14T13:05:23;4.32;;;2.67;;
12990;SDS011;6560;57.692;11.958;2023-06-14T13:07:49;3.70;;;2.70;;
12990;SDS011;6560;57.692;11.958;2023-06-14T13:10:16;3.15;;;2.83;;
12990;SDS011;6560;57.692;11.958;2023-06-14T13:12:42;3.58;;;3.28;;
12990;SDS011;6560;57.692;11.958;2023-06-14T13:15:09;4.38;;;3.65;;
12990;SDS011;6560;57.692;11.958;2023-06-14T13:17:35;4.88;;;2.58;;
12990;SDS011;6560;57.692;11.958;2023-06-14T13:20:05;5.60;;;2.85;;
12990;SDS011;6560;57.692;11.958;2023-06-14T13:22:36;4.20;;;2.80;;
12990;SDS011;6560;57.692;11.958;2023-06-14T13:25:02;4.78;;;2.90;;
12990;SDS011;6560;57.692;11.958;2023-06-14T13:27:28;4.53;;;3.17;;
12990;SDS011;6560;57.692;11.958;2023-06-14T13:29:54;4.45;;;2.45;;
12990;SDS011;6560;57.692;11.958;2023-06-14T13:32:21;6.00;;;2.75;;
12990;SDS011;6560;57.692;11.958;2023-06-14T13:34:47;4.13;;;2.88;;
12990;SDS011;6560;57.692;11.958;2023-06-14T13:37:13;3.45;;;2.47;;
12990;SDS011;6560;57.692;11.958;2023-06-14T13:39:40;3.83;;;2.53;;
12990;SDS011;6560;57.692;11.958;2023-06-14T13:42:06;4.57;;;2.65;;
12990;SDS011;6560;57.692;11.958;2023-06-14T13:44:31;3.08;;;2.78;;
12990;SDS011;6560;57.692;11.958;2023-06-14T13:46:57;3.40;;;2.72;;
12990;SDS011;6560;57.692;11.958;2023-06-14T13:49:24;4.60;;;2.75;;
12990;SDS011;6560;57.692;11.958;2023-06-14T13:51:50;3.97;;;2.75;;
12990;SDS011;6560;57.692;11.958;2023-06-14T13:54:18;3.08;;;2.78;;
12990;SDS011;6560;57.692;11.958;2023-06-14T13:56:45;3.80;;;2.55;;
12990;SDS011;6560;57.692;11.958;2023-06-14T13:59:11;6.25;;;2.90;;
12990;SDS011;6560;57.692;11.958;2023-06-14T14:01:37;2.90;;;2.70;;
12990;SDS011;6560;57.692;11.958;2023-06-14T14:04:02;5.95;;;2.90;;
12990;SDS011;6560;57.692;11.958;2023-06-14T14:06:28;4.60;;;3.20;;
12990;SDS011;6560;57.692;11.958;2023-06-14T14:08:53;6.70;;;2.97;;
12990;SDS011;6560;57.692;11.958;2023-06-14T14:11:19;3.70;;;2.60;;
12990;SDS011;6560;57.692;11.958;2023-06-14T14:13:45;4.50;;;2.90;;
12990;SDS011;6560;57.692;11.958;2023-06-14T14:16:12;5.13;;;2.63;;
12990;SDS011;6560;57.692;11.958;2023-06-14T14:18:38;5.30;;;2.97;;
12990;SDS011;6560;57.692;11.958;2023-06-14T14:21:03;2.97;;;2.63;;
12990;SDS011;6560;57.692;11.958;2023-06-14T14:23:29;5.05;;;3.15;;
12990;SDS011;6560;57.692;11.958;2023-06-14T14:25:55;4.65;;;2.97;;
12990;SDS011;6560;57.692;11.958;2023-06-14T14:28:20;3.03;;;2.67;;
12990;SDS011;6560;57.692;11.958;2023-06-14T14:30:46;3.63;;;2.65;;
12990;SDS011;6560;57.692;11.958;2023-06-14T14:33:13;2.75;;;2.53;;
12990;SDS011;6560;57.692;11.958;2023-06-14T14:35:44;2.72;;;2.53;;
12990;SDS011;6560;57.692;11.958;2023-06-14T14:38:13;4.40;;;3.00;;
12990;SDS011;6560;57.692;11.958;2023-06-14T14:40:41;4.50;;;3.30;;
12990;SDS011;6560;57.692;11.958;2023-06-14T14:43:07;4.55;;;2.83;;
12990;SDS011;6560;57.692;11.958;2023-06-14T14:45:33;3.50;;;2.40;;
12990;SDS011;6560;57.692;11.958;2023-06-14T14:48:00;2.97;;;2.67;;
12990;SDS011;6560;57.692;11.958;2023-06-14T14:50:26;4.38;;;2.60;;
12990;SDS011;6560;57.692;11.958;2023-06-14T14:52:51;3.08;;;2.38;;
12990;SDS011;6560;57.692;11.958;2023-06-14T14:55:17;7.70;;;3.30;;
12990;SDS011;6560;57.692;11.958;2023-06-14T14:57:43;4.72;;;2.78;;
12990;SDS011;6560;57.692;11.958;2023-06-14T15:00:10;3.15;;;2.92;;
12990;SDS011;6560;57.692;11.958;2023-06-14T15:02:36;2.83;;;2.60;;
12990;SDS011;6560;57.692;11.958;2023-06-14T15:05:02;2.83;;;2.60;;
12990;SDS011;6560;57.692;11.958;2023-06-14T15:07:28;2.80;;;2.60;;
12990;SDS011;6560;57.692;11.958;2023-06-14T15:09:57;3.80;;;3.05;;
12990;SDS011;6560;57.692;11.958;2023-06-14T15:12:22;4.13;;;3.28;;
12990;SDS011;6560;57.692;11.958;2023-06-14T15:14:52;4.05;;;3.33;;
12990;SDS011;6560;57.692;11.958;2023-06-14T15:17:18;4.25;;;3.13;;
12990;SDS011;6560;57.692;11.958;2023-06-14T15:19:47;3.72;;;3.10;;
12990;SDS011;6560;57.692;11.958;2023-06-14T15:22:13;4.25;;;3.08;;